sensor_id;sensor_type;location;lat;lon;timestamp;P1;durP1;ratioP1;P2;durP2;ratioP2
69253;SDS011;56364;41.816;12.448;2023-12-14T00:00:26;20.27;;;1.65;;
69253;SDS011;56364;41.816;12.448;2023-12-14T00:05:18;9.23;;;0.98;;
69253;SDS011;56364;41.816;12.448;2023-12-14T00:07:44;6.88;;;1.00;;
69253;SDS011;56364;41.816;12.448;2023-12-14T00:10:11;6.53;;;0.88;;
69253;SDS011;56364;41.816;12.448;2023-12-14T00:12:37;2.13;;;0.80;;
69253;SDS011;56364;41.816;12.448;2023-12-14T00:17:29;2.05;;;0.68;;
69253;SDS011;56364;41.816;12.448;2023-12-14T00:19:56;8.40;;;1.27;;
69253;SDS011;56364;41.816;12.448;2023-12-14T00:22:22;4.43;;;0.80;;
69253;SDS011;56364;41.816;12.448;2023-12-14T00:24:48;7.97;;;1.05;;
69253;SDS011;56364;41.816;12.448;2023-12-14T00:27:14;3.58;;;0.80;;
69253;SDS011;56364;41.816;12.448;2023-12-14T00:29:40;3.28;;;0.80;;
69253;SDS011;56364;41.816;12.448;2023-12-14T00:32:06;2.53;;;0.90;;
69253;SDS011;56364;41.816;12.448;2023-12-14T00:34:32;6.75;;;0.77;;
69253;SDS011;56364;41.816;12.448;2023-12-14T00:39:24;5.72;;;0.73;;
69253;SDS011;56364;41.816;12.448;2023-12-14T00:44:26;4.18;;;0.70;;
69253;SDS011;56364;41.816;12.448;2023-12-14T00:46:52;7.28;;;0.75;;
69253;SDS011;56364;41.816;12.448;2023-12-14T00:49:18;8.02;;;1.30;;
69253;SDS011;56364;41.816;12.448;2023-12-14T00:51:45;7.63;;;1.40;;
69253;SDS011;56364;41.816;12.448;2023-12-14T00:54:11;8.02;;;1.52;;
69253;SDS011;56364;41.816;12.448;2023-12-14T00:56:37;5.95;;;1.13;;
69253;SDS011;56364;41.816;12.448;2023-12-14T00:59:03;5.80;;;0.93;;
69253;SDS011;56364;41.816;12.448;2023-12-14T01:01:29;5.97;;;1.13;;
69253;SDS011;56364;41.816;12.448;2023-12-14T01:03:55;2.92;;;0.80;;
69253;SDS011;56364;41.816;12.448;2023-12-14T01:08:57;11.35;;;1.27;;
69253;SDS011;56364;41.816;12.448;2023-12-14T01:11:23;8.98;;;0.80;;
69253;SDS011;56364;41.816;12.448;2023-12-14T01:13:50;5.80;;;1.10;;
69253;SDS011;56364;41.816;12.448;2023-12-14T01:16:16;1.05;;;0.32;;
69253;SDS011;56364;41.816;12.448;2023-12-14T01:18:42;5.88;;;1.17;;
69253;SDS011;56364;41.816;12.448;2023-12-14T01:21:08;4.30;;;1.13;;
69253;SDS011;56364;41.816;12.448;2023-12-14T01:23:34;11.07;;;1.35;;
69253;SDS011;56364;41.816;12.448;2023-12-14T01:26:05;5.00;;;0.80;;
69253;SDS011;56364;41.816;12.448;2023-12-14T01:28:54;4.32;;;0.60;;
69253;SDS011;56364;41.816;12.448;2023-12-14T01:33:49;9.23;;;0.80;;
69253;SDS011;56364;41.816;12.448;2023-12-14T01:36:25;9.13;;;0.95;;
69253;SDS011;56364;41.816;12.448;2023-12-14T01:38:52;0.88;;;0.30;;
69253;SDS011;56364;41.816;12.448;2023-12-14T01:41:18;7.50;;;1.17;;
69253;SDS011;56364;41.816;12.448;2023-12-14T01:43:49;6.22;;;1.10;;
69253;SDS011;56364;41.816;12.448;2023-12-14T01:46:15;7.28;;;1.25;;
69253;SDS011;56364;41.816;12.448;2023-12-14T01:48:41;11.60;;;1.88;;
69253;SDS011;56364;41.816;12.448;2023-12-14T01:51:07;7.03;;;1.58;;
69253;SDS011;56364;41.816;12.448;2023-12-14T01:53:33;5.95;;;0.85;;
69253;SDS011;56364;41.816;12.448;2023-12-14T01:56:00;5.93;;;0.77;;
69253;SDS011;56364;41.816;12.448;2023-12-14T01:58:26;2.05;;;1.20;;
69253;SDS011;56364;41.816;12.448;2023-12-14T02:03:18;10.52;;;1.58;;
69253;SDS011;56364;41.816;12.448;2023-12-14T02:05:44;12.52;;;2.00;;
69253;SDS011;56364;41.816;12.448;2023-12-14T02:08:10;15.05;;;1.05;;
69253;SDS011;56364;41.816;12.448;2023-12-14T02:13:02;8.95;;;1.25;;
69253;SDS011;56364;41.816;12.448;2023-12-14T02:15:32;11.13;;;1.52;;
69253;SDS011;56364;41.816;12.448;2023-12-14T02:17:59;2.25;;;0.68;;
69253;SDS011;56364;41.816;12.448;2023-12-14T02:20:25;12.15;;;1.17;;
69253;SDS011;56364;41.816;12.448;2023-12-14T02:22:52;4.85;;;1.20;;
69253;SDS011;56364;41.816;12.448;2023-12-14T02:25:20;4.93;;;1.20;;
69253;SDS011;56364;41.816;12.448;2023-12-14T02:27:50;10.57;;;1.90;;
69253;SDS011;56364;41.816;12.448;2023-12-14T02:30:16;5.65;;;1.00;;
69253;SDS011;56364;41.816;12.448;2023-12-14T02:32:43;5.22;;;0.88;;
69253;SDS011;56364;41.816;12.448;2023-12-14T02:35:09;6.05;;;1.05;;
69253;SDS011;56364;41.816;12.448;2023-12-14T02:37:36;3.60;;;0.93;;
69253;SDS011;56364;41.816;12.448;2023-12-14T02:40:02;5.85;;;1.20;;
69253;SDS011;56364;41.816;12.448;2023-12-14T02:45:05;9.70;;;0.93;;
69253;SDS011;56364;41.816;12.448;2023-12-14T02:47:32;7.13;;;1.00;;
69253;SDS011;56364;41.816;12.448;2023-12-14T02:49:59;10.02;;;1.40;;
69253;SDS011;56364;41.816;12.448;2023-12-14T02:52:25;6.30;;;1.23;;
69253;SDS011;56364;41.816;12.448;2023-12-14T02:54:51;11.75;;;1.65;;
69253;SDS011;56364;41.816;12.448;2023-12-14T02:57:17;6.28;;;1.10;;
69253;SDS011;56364;41.816;12.448;2023-12-14T02:59:44;15.10;;;1.38;;
69253;SDS011;56364;41.816;12.448;2023-12-14T03:02:10;11.30;;;0.80;;
69253;SDS011;56364;41.816;12.448;2023-12-14T03:04:39;3.22;;;0.52;;
69253;SDS011;56364;41.816;12.448;2023-12-14T03:09:31;6.38;;;0.95;;
69253;SDS011;56364;41.816;12.448;2023-12-14T03:11:57;4.93;;;0.98;;
69253;SDS011;56364;41.816;12.448;2023-12-14T03:14:23;11.10;;;1.23;;
69253;SDS011;56364;41.816;12.448;2023-12-14T03:16:49;5.90;;;1.38;;
69253;SDS011;56364;41.816;12.448;2023-12-14T03:19:15;5.93;;;1.20;;
69253;SDS011;56364;41.816;12.448;2023-12-14T03:21:42;6.53;;;0.90;;
69253;SDS011;56364;41.816;12.448;2023-12-14T03:24:08;10.77;;;1.45;;
69253;SDS011;56364;41.816;12.448;2023-12-14T03:26:34;6.65;;;1.08;;
69253;SDS011;56364;41.816;12.448;2023-12-14T03:29:00;10.95;;;0.77;;
69253;SDS011;56364;41.816;12.448;2023-12-14T03:31:26;3.08;;;0.77;;
69253;SDS011;56364;41.816;12.448;2023-12-14T03:33:52;2.83;;;0.88;;
69253;SDS011;56364;41.816;12.448;2023-12-14T03:36:19;9.27;;;1.58;;
69253;SDS011;56364;41.816;12.448;2023-12-14T03:38:45;10.68;;;0.98;;
69253;SDS011;56364;41.816;12.448;2023-12-14T03:41:11;6.90;;;0.82;;
69253;SDS011;56364;41.816;12.448;2023-12-14T03:43:37;7.55;;;1.70;;
69253;SDS011;56364;41.816;12.448;2023-12-14T03:46:03;11.18;;;1.13;;
69253;SDS011;56364;41.816;12.448;2023-12-14T03:48:31;14.27;;;1.13;;
69253;SDS011;56364;41.816;12.448;2023-12-14T03:50:57;9.55;;;1.27;;
69253;SDS011;56364;41.816;12.448;2023-12-14T03:53:23;6.32;;;0.90;;
69253;SDS011;56364;41.816;12.448;2023-12-14T03:55:49;9.43;;;1.58;;
69253;SDS011;56364;41.816;12.448;2023-12-14T03:58:15;7.22;;;1.42;;
69253;SDS011;56364;41.816;12.448;2023-12-14T04:00:41;14.77;;;1.40;;
69253;SDS011;56364;41.816;12.448;2023-12-14T04:03:07;10.05;;;0.95;;
69253;SDS011;56364;41.816;12.448;2023-12-14T04:26:12;11.52;;;1.88;;
69253;SDS011;56364;41.816;12.448;2023-12-14T04:28:39;4.93;;;0.90;;
69253;SDS011;56364;41.816;12.448;2023-12-14T04:31:09;10.95;;;1.20;;
69253;SDS011;56364;41.816;12.448;2023-12-14T04:33:38;7.10;;;1.40;;
69253;SDS011;56364;41.816;12.448;2023-12-14T04:36:05;13.85;;;1.52;;
69253;SDS011;56364;41.816;12.448;2023-12-14T04:38:31;17.20;;;1.67;;
69253;SDS011;56364;41.816;12.448;2023-12-14T04:40:59;13.88;;;1.95;;
69253;SDS011;56364;41.816;12.448;2023-12-14T04:43:25;11.80;;;1.35;;
69253;SDS011;56364;41.816;12.448;2023-12-14T05:04:24;7.78;;;0.98;;
69253;SDS011;56364;41.816;12.448;2023-12-14T05:09:26;14.80;;;1.67;;
69253;SDS011;56364;41.816;12.448;2023-12-14T05:11:53;7.20;;;1.63;;
69253;SDS011;56364;41.816;12.448;2023-12-14T05:14:19;10.63;;;1.30;;
69253;SDS011;56364;41.816;12.448;2023-12-14T05:16:45;16.40;;;1.73;;
69253;SDS011;56364;41.816;12.448;2023-12-14T05:19:11;5.10;;;1.20;;
69253;SDS011;56364;41.816;12.448;2023-12-14T05:21:40;13.10;;;1.65;;
69253;SDS011;56364;41.816;12.448;2023-12-14T05:26:43;16.38;;;2.38;;
69253;SDS011;56364;41.816;12.448;2023-12-14T05:29:09;14.32;;;1.83;;
69253;SDS011;56364;41.816;12.448;2023-12-14T05:31:35;12.23;;;1.83;;
69253;SDS011;56364;41.816;12.448;2023-12-14T05:34:02;12.07;;;1.88;;
69253;SDS011;56364;41.816;12.448;2023-12-14T05:36:28;10.48;;;1.45;;
69253;SDS011;56364;41.816;12.448;2023-12-14T05:38:54;18.85;;;1.42;;
69253;SDS011;56364;41.816;12.448;2023-12-14T05:41:20;7.57;;;1.50;;
69253;SDS011;56364;41.816;12.448;2023-12-14T05:46:22;9.35;;;1.42;;
69253;SDS011;56364;41.816;12.448;2023-12-14T05:48:49;12.75;;;1.13;;
69253;SDS011;56364;41.816;12.448;2023-12-14T05:51:28;23.63;;;1.95;;
69253;SDS011;56364;41.816;12.448;2023-12-14T05:56:20;11.55;;;1.90;;
69253;SDS011;56364;41.816;12.448;2023-12-14T05:58:46;14.50;;;2.45;;
69253;SDS011;56364;41.816;12.448;2023-12-14T06:01:14;18.65;;;1.88;;
69253;SDS011;56364;41.816;12.448;2023-12-14T06:03:42;7.25;;;1.25;;
69253;SDS011;56364;41.816;12.448;2023-12-14T06:22:12;10.43;;;1.60;;
69253;SDS011;56364;41.816;12.448;2023-12-14T06:24:38;12.35;;;1.90;;
69253;SDS011;56364;41.816;12.448;2023-12-14T06:27:06;10.70;;;1.92;;
69253;SDS011;56364;41.816;12.448;2023-12-14T06:29:32;11.05;;;1.25;;
69253;SDS011;56364;41.816;12.448;2023-12-14T06:32:04;17.10;;;2.05;;
69253;SDS011;56364;41.816;12.448;2023-12-14T06:36:56;21.70;;;2.35;;
69253;SDS011;56364;41.816;12.448;2023-12-14T06:39:25;11.13;;;1.60;;
69253;SDS011;56364;41.816;12.448;2023-12-14T06:41:54;14.20;;;1.98;;
69253;SDS011;56364;41.816;12.448;2023-12-14T06:44:20;8.38;;;1.23;;
69253;SDS011;56364;41.816;12.448;2023-12-14T06:46:46;16.13;;;2.42;;
69253;SDS011;56364;41.816;12.448;2023-12-14T06:49:12;9.82;;;1.63;;
69253;SDS011;56364;41.816;12.448;2023-12-14T06:51:38;12.88;;;1.67;;
69253;SDS011;56364;41.816;12.448;2023-12-14T06:54:04;15.25;;;2.40;;
69253;SDS011;56364;41.816;12.448;2023-12-14T06:56:30;18.90;;;2.72;;
69253;SDS011;56364;41.816;12.448;2023-12-14T06:58:56;10.20;;;1.90;;
69253;SDS011;56364;41.816;12.448;2023-12-14T07:01:22;14.93;;;2.00;;
69253;SDS011;56364;41.816;12.448;2023-12-14T07:03:48;14.18;;;2.30;;
69253;SDS011;56364;41.816;12.448;2023-12-14T07:06:15;9.18;;;1.67;;
69253;SDS011;56364;41.816;12.448;2023-12-14T07:08:44;10.88;;;1.90;;
69253;SDS011;56364;41.816;12.448;2023-12-14T07:11:12;13.20;;;2.20;;
69253;SDS011;56364;41.816;12.448;2023-12-14T07:13:39;12.40;;;2.53;;
69253;SDS011;56364;41.816;12.448;2023-12-14T07:16:06;10.13;;;1.75;;
69253;SDS011;56364;41.816;12.448;2023-12-14T07:18:35;14.43;;;1.90;;
69253;SDS011;56364;41.816;12.448;2023-12-14T07:21:01;6.95;;;1.45;;
69253;SDS011;56364;41.816;12.448;2023-12-14T07:23:27;7.15;;;1.30;;
69253;SDS011;56364;41.816;12.448;2023-12-14T07:25:53;16.90;;;2.40;;
69253;SDS011;56364;41.816;12.448;2023-12-14T07:28:20;4.00;;;1.02;;
69253;SDS011;56364;41.816;12.448;2023-12-14T07:30:46;18.15;;;1.90;;
69253;SDS011;56364;41.816;12.448;2023-12-14T07:33:12;4.20;;;1.15;;
69253;SDS011;56364;41.816;12.448;2023-12-14T07:35:38;10.75;;;2.05;;
69253;SDS011;56364;41.816;12.448;2023-12-14T07:38:04;8.90;;;1.40;;
69253;SDS011;56364;41.816;12.448;2023-12-14T07:40:30;12.05;;;2.38;;
69253;SDS011;56364;41.816;12.448;2023-12-14T07:42:56;10.98;;;1.95;;
69253;SDS011;56364;41.816;12.448;2023-12-14T07:48:06;14.88;;;2.08;;
69253;SDS011;56364;41.816;12.448;2023-12-14T07:52:58;12.23;;;1.75;;
69253;SDS011;56364;41.816;12.448;2023-12-14T07:55:24;11.10;;;2.08;;
69253;SDS011;56364;41.816;12.448;2023-12-14T07:57:50;16.90;;;2.17;;
69253;SDS011;56364;41.816;12.448;2023-12-14T08:00:17;19.38;;;2.95;;
69253;SDS011;56364;41.816;12.448;2023-12-14T08:02:43;18.45;;;2.15;;
69253;SDS011;56364;41.816;12.448;2023-12-14T08:05:16;19.88;;;2.63;;
69253;SDS011;56364;41.816;12.448;2023-12-14T08:07:52;17.73;;;2.10;;
69253;SDS011;56364;41.816;12.448;2023-12-14T08:10:18;13.35;;;2.00;;
69253;SDS011;56364;41.816;12.448;2023-12-14T08:12:45;22.85;;;1.92;;
69253;SDS011;56364;41.816;12.448;2023-12-14T08:15:16;15.85;;;2.10;;
69253;SDS011;56364;41.816;12.448;2023-12-14T08:17:42;19.52;;;2.13;;
69253;SDS011;56364;41.816;12.448;2023-12-14T08:20:08;11.27;;;1.98;;
69253;SDS011;56364;41.816;12.448;2023-12-14T08:22:36;5.95;;;1.25;;
69253;SDS011;56364;41.816;12.448;2023-12-14T08:27:42;12.85;;;1.80;;
69253;SDS011;56364;41.816;12.448;2023-12-14T08:30:12;9.45;;;2.15;;
69253;SDS011;56364;41.816;12.448;2023-12-14T08:32:38;6.22;;;1.15;;
69253;SDS011;56364;41.816;12.448;2023-12-14T08:35:08;9.60;;;1.20;;
69253;SDS011;56364;41.816;12.448;2023-12-14T08:37:35;7.78;;;1.50;;
69253;SDS011;56364;41.816;12.448;2023-12-14T08:40:02;11.02;;;1.25;;
69253;SDS011;56364;41.816;12.448;2023-12-14T08:42:28;2.90;;;1.25;;
69253;SDS011;56364;41.816;12.448;2023-12-14T08:44:54;10.57;;;1.67;;
69253;SDS011;56364;41.816;12.448;2023-12-14T08:47:20;15.88;;;2.03;;
69253;SDS011;56364;41.816;12.448;2023-12-14T08:49:50;7.80;;;1.45;;
69253;SDS011;56364;41.816;12.448;2023-12-14T08:52:19;10.68;;;1.92;;
69253;SDS011;56364;41.816;12.448;2023-12-14T08:54:48;15.10;;;2.83;;
69253;SDS011;56364;41.816;12.448;2023-12-14T08:59:53;11.45;;;2.72;;
69253;SDS011;56364;41.816;12.448;2023-12-14T09:07:28;12.32;;;2.42;;
69253;SDS011;56364;41.816;12.448;2023-12-14T09:09:54;12.00;;;2.35;;
69253;SDS011;56364;41.816;12.448;2023-12-14T09:12:20;15.90;;;2.45;;
69253;SDS011;56364;41.816;12.448;2023-12-14T09:14:47;20.27;;;2.20;;
69253;SDS011;56364;41.816;12.448;2023-12-14T09:17:17;22.92;;;4.00;;
69253;SDS011;56364;41.816;12.448;2023-12-14T09:19:43;13.43;;;2.38;;
69253;SDS011;56364;41.816;12.448;2023-12-14T09:22:14;20.90;;;2.50;;
69253;SDS011;56364;41.816;12.448;2023-12-14T09:24:40;6.53;;;1.98;;
69253;SDS011;56364;41.816;12.448;2023-12-14T09:27:06;10.38;;;1.88;;
69253;SDS011;56364;41.816;12.448;2023-12-14T09:29:32;16.13;;;1.98;;
69253;SDS011;56364;41.816;12.448;2023-12-14T09:31:59;10.68;;;3.08;;
69253;SDS011;56364;41.816;12.448;2023-12-14T09:34:24;8.38;;;1.88;;
69253;SDS011;56364;41.816;12.448;2023-12-14T09:36:51;10.05;;;2.40;;
69253;SDS011;56364;41.816;12.448;2023-12-14T09:41:44;7.28;;;2.30;;
69253;SDS011;56364;41.816;12.448;2023-12-14T09:44:11;15.85;;;1.95;;
69253;SDS011;56364;41.816;12.448;2023-12-14T09:46:38;8.50;;;1.90;;
69253;SDS011;56364;41.816;12.448;2023-12-14T09:49:06;4.28;;;1.73;;
69253;SDS011;56364;41.816;12.448;2023-12-14T09:51:33;8.73;;;1.88;;
69253;SDS011;56364;41.816;12.448;2023-12-14T09:54:07;14.65;;;1.92;;
69253;SDS011;56364;41.816;12.448;2023-12-14T09:56:33;7.57;;;1.52;;
69253;SDS011;56364;41.816;12.448;2023-12-14T09:59:00;7.45;;;1.70;;
69253;SDS011;56364;41.816;12.448;2023-12-14T10:01:29;14.20;;;1.92;;
69253;SDS011;56364;41.816;12.448;2023-12-14T10:04:16;9.85;;;1.73;;
69253;SDS011;56364;41.816;12.448;2023-12-14T10:06:42;15.77;;;2.25;;
69253;SDS011;56364;41.816;12.448;2023-12-14T10:09:08;6.43;;;1.65;;
69253;SDS011;56364;41.816;12.448;2023-12-14T10:11:36;19.45;;;2.25;;
69253;SDS011;56364;41.816;12.448;2023-12-14T10:14:02;16.83;;;2.40;;
69253;SDS011;56364;41.816;12.448;2023-12-14T10:16:32;11.93;;;1.33;;
69253;SDS011;56364;41.816;12.448;2023-12-14T10:18:58;11.18;;;1.63;;
69253;SDS011;56364;41.816;12.448;2023-12-14T10:21:26;7.47;;;1.67;;
69253;SDS011;56364;41.816;12.448;2023-12-14T10:23:54;7.65;;;1.00;;
69253;SDS011;56364;41.816;12.448;2023-12-14T10:26:24;7.10;;;1.50;;
69253;SDS011;56364;41.816;12.448;2023-12-14T10:28:54;8.75;;;1.15;;
69253;SDS011;56364;41.816;12.448;2023-12-14T10:31:20;10.95;;;1.55;;
69253;SDS011;56364;41.816;12.448;2023-12-14T10:33:46;7.03;;;0.82;;
69253;SDS011;56364;41.816;12.448;2023-12-14T10:36:13;11.45;;;1.08;;
69253;SDS011;56364;41.816;12.448;2023-12-14T10:38:39;9.00;;;1.27;;
69253;SDS011;56364;41.816;12.448;2023-12-14T10:41:06;10.50;;;1.20;;
69253;SDS011;56364;41.816;12.448;2023-12-14T10:43:34;18.02;;;2.63;;
69253;SDS011;56364;41.816;12.448;2023-12-14T10:46:01;13.05;;;1.83;;
69253;SDS011;56364;41.816;12.448;2023-12-14T10:48:29;9.05;;;1.85;;
69253;SDS011;56364;41.816;12.448;2023-12-14T10:50:56;13.13;;;2.15;;
69253;SDS011;56364;41.816;12.448;2023-12-14T10:53:22;13.95;;;2.30;;
69253;SDS011;56364;41.816;12.448;2023-12-14T10:55:48;10.02;;;1.90;;
69253;SDS011;56364;41.816;12.448;2023-12-14T10:58:16;15.32;;;2.08;;
69253;SDS011;56364;41.816;12.448;2023-12-14T11:00:42;17.70;;;2.00;;
69253;SDS011;56364;41.816;12.448;2023-12-14T11:03:12;14.10;;;2.58;;
69253;SDS011;56364;41.816;12.448;2023-12-14T11:05:38;11.90;;;2.88;;
69253;SDS011;56364;41.816;12.448;2023-12-14T11:08:05;16.40;;;1.80;;
69253;SDS011;56364;41.816;12.448;2023-12-14T11:10:38;10.15;;;1.70;;
69253;SDS011;56364;41.816;12.448;2023-12-14T11:13:09;15.43;;;2.35;;
69253;SDS011;56364;41.816;12.448;2023-12-14T11:15:36;11.48;;;1.75;;
69253;SDS011;56364;41.816;12.448;2023-12-14T11:23:10;14.90;;;2.17;;
69253;SDS011;56364;41.816;12.448;2023-12-14T11:25:39;13.32;;;1.85;;
69253;SDS011;56364;41.816;12.448;2023-12-14T11:28:12;10.52;;;1.58;;
69253;SDS011;56364;41.816;12.448;2023-12-14T11:30:38;11.10;;;1.60;;
69253;SDS011;56364;41.816;12.448;2023-12-14T11:35:33;11.82;;;1.42;;
69253;SDS011;56364;41.816;12.448;2023-12-14T11:37:59;9.75;;;1.92;;
69253;SDS011;56364;41.816;12.448;2023-12-14T11:40:30;2.10;;;1.00;;
69253;SDS011;56364;41.816;12.448;2023-12-14T11:42:59;11.50;;;1.73;;
69253;SDS011;56364;41.816;12.448;2023-12-14T11:48:05;4.63;;;1.50;;
69253;SDS011;56364;41.816;12.448;2023-12-14T11:50:32;9.70;;;1.60;;
69253;SDS011;56364;41.816;12.448;2023-12-14T11:52:59;8.57;;;1.58;;
69253;SDS011;56364;41.816;12.448;2023-12-14T11:55:26;8.57;;;1.90;;
69253;SDS011;56364;41.816;12.448;2023-12-14T12:00:22;4.60;;;1.35;;
69253;SDS011;56364;41.816;12.448;2023-12-14T12:02:49;4.32;;;1.05;;
69253;SDS011;56364;41.816;12.448;2023-12-14T12:07:44;11.18;;;1.60;;
69253;SDS011;56364;41.816;12.448;2023-12-14T12:10:10;14.23;;;2.20;;
69253;SDS011;56364;41.816;12.448;2023-12-14T12:12:41;6.93;;;1.77;;
69253;SDS011;56364;41.816;12.448;2023-12-14T12:15:08;8.43;;;1.88;;
69253;SDS011;56364;41.816;12.448;2023-12-14T12:17:34;15.32;;;2.15;;
69253;SDS011;56364;41.816;12.448;2023-12-14T12:20:04;13.80;;;1.48;;
69253;SDS011;56364;41.816;12.448;2023-12-14T12:22:31;9.68;;;1.35;;
69253;SDS011;56364;41.816;12.448;2023-12-14T12:27:29;6.97;;;1.90;;
69253;SDS011;56364;41.816;12.448;2023-12-14T12:29:55;11.45;;;1.95;;
69253;SDS011;56364;41.816;12.448;2023-12-14T12:32:21;8.48;;;2.25;;
69253;SDS011;56364;41.816;12.448;2023-12-14T12:34:47;11.43;;;1.45;;
69253;SDS011;56364;41.816;12.448;2023-12-14T12:37:13;7.35;;;1.58;;
69253;SDS011;56364;41.816;12.448;2023-12-14T12:39:39;11.63;;;1.75;;
69253;SDS011;56364;41.816;12.448;2023-12-14T12:42:06;8.75;;;1.77;;
69253;SDS011;56364;41.816;12.448;2023-12-14T12:47:06;6.25;;;1.35;;
69253;SDS011;56364;41.816;12.448;2023-12-14T12:49:32;10.27;;;2.05;;
69253;SDS011;56364;41.816;12.448;2023-12-14T12:51:58;8.80;;;1.63;;
69253;SDS011;56364;41.816;12.448;2023-12-14T12:54:24;6.88;;;1.63;;
69253;SDS011;56364;41.816;12.448;2023-12-14T12:56:50;8.38;;;1.30;;
69253;SDS011;56364;41.816;12.448;2023-12-14T12:59:16;4.07;;;1.10;;
69253;SDS011;56364;41.816;12.448;2023-12-14T13:01:42;6.82;;;1.30;;
69253;SDS011;56364;41.816;12.448;2023-12-14T13:04:19;3.60;;;1.05;;
69253;SDS011;56364;41.816;12.448;2023-12-14T13:06:49;10.27;;;1.50;;
69253;SDS011;56364;41.816;12.448;2023-12-14T13:09:17;8.30;;;1.50;;
69253;SDS011;56364;41.816;12.448;2023-12-14T13:11:44;10.50;;;1.85;;
69253;SDS011;56364;41.816;12.448;2023-12-14T13:14:10;8.20;;;1.50;;
69253;SDS011;56364;41.816;12.448;2023-12-14T13:16:37;6.20;;;1.55;;
69253;SDS011;56364;41.816;12.448;2023-12-14T13:19:03;8.10;;;1.98;;
69253;SDS011;56364;41.816;12.448;2023-12-14T13:21:31;8.20;;;1.83;;
69253;SDS011;56364;41.816;12.448;2023-12-14T13:23:59;6.60;;;1.30;;
69253;SDS011;56364;41.816;12.448;2023-12-14T13:29:01;6.40;;;1.55;;
69253;SDS011;56364;41.816;12.448;2023-12-14T13:31:28;8.02;;;1.48;;
69253;SDS011;56364;41.816;12.448;2023-12-14T13:33:54;15.40;;;1.30;;
69253;SDS011;56364;41.816;12.448;2023-12-14T13:36:20;6.40;;;1.75;;
69253;SDS011;56364;41.816;12.448;2023-12-14T13:38:46;6.22;;;1.48;;
69253;SDS011;56364;41.816;12.448;2023-12-14T13:41:12;2.78;;;1.02;;
69253;SDS011;56364;41.816;12.448;2023-12-14T13:46:04;8.43;;;0.98;;
69253;SDS011;56364;41.816;12.448;2023-12-14T13:48:31;5.38;;;0.98;;
69253;SDS011;56364;41.816;12.448;2023-12-14T13:50:57;9.43;;;1.58;;
69253;SDS011;56364;41.816;12.448;2023-12-14T13:53:23;6.80;;;1.38;;
69253;SDS011;56364;41.816;12.448;2023-12-14T13:55:50;3.20;;;1.10;;
69253;SDS011;56364;41.816;12.448;2023-12-14T13:58:16;7.72;;;1.30;;
69253;SDS011;56364;41.816;12.448;2023-12-14T14:00:45;3.80;;;0.90;;
69253;SDS011;56364;41.816;12.448;2023-12-14T14:05:49;5.47;;;1.00;;
69253;SDS011;56364;41.816;12.448;2023-12-14T14:08:35;6.78;;;1.10;;
69253;SDS011;56364;41.816;12.448;2023-12-14T14:11:01;6.30;;;1.42;;
69253;SDS011;56364;41.816;12.448;2023-12-14T14:15:53;3.67;;;0.90;;
69253;SDS011;56364;41.816;12.448;2023-12-14T14:18:22;7.13;;;0.70;;
69253;SDS011;56364;41.816;12.448;2023-12-14T14:23:14;2.35;;;0.70;;
69253;SDS011;56364;41.816;12.448;2023-12-14T14:28:06;0.85;;;0.50;;
69253;SDS011;56364;41.816;12.448;2023-12-14T14:30:33;0.85;;;0.50;;
69253;SDS011;56364;41.816;12.448;2023-12-14T14:32:59;1.90;;;0.80;;
69253;SDS011;56364;41.816;12.448;2023-12-14T14:35:25;0.98;;;0.77;;
69253;SDS011;56364;41.816;12.448;2023-12-14T14:37:57;3.78;;;0.80;;
69253;SDS011;56364;41.816;12.448;2023-12-14T14:40:23;1.55;;;0.73;;
69253;SDS011;56364;41.816;12.448;2023-12-14T14:47:46;1.50;;;0.80;;
69253;SDS011;56364;41.816;12.448;2023-12-14T14:52:38;4.75;;;0.70;;
69253;SDS011;56364;41.816;12.448;2023-12-14T14:57:30;6.25;;;1.08;;
69253;SDS011;56364;41.816;12.448;2023-12-14T14:59:58;3.65;;;0.95;;
69253;SDS011;56364;41.816;12.448;2023-12-14T15:02:24;2.22;;;1.00;;
69253;SDS011;56364;41.816;12.448;2023-12-14T15:07:17;4.90;;;0.98;;
69253;SDS011;56364;41.816;12.448;2023-12-14T15:09:48;3.03;;;0.90;;
69253;SDS011;56364;41.816;12.448;2023-12-14T15:12:14;1.73;;;1.00;;
69253;SDS011;56364;41.816;12.448;2023-12-14T15:14:40;7.50;;;1.67;;
69253;SDS011;56364;41.816;12.448;2023-12-14T15:17:07;5.38;;;1.23;;
69253;SDS011;56364;41.816;12.448;2023-12-14T15:19:33;6.82;;;1.20;;
69253;SDS011;56364;41.816;12.448;2023-12-14T15:24:25;2.55;;;0.90;;
69253;SDS011;56364;41.816;12.448;2023-12-14T15:26:52;3.22;;;1.05;;
69253;SDS011;56364;41.816;12.448;2023-12-14T15:31:45;4.03;;;1.35;;
69253;SDS011;56364;41.816;12.448;2023-12-14T15:34:14;1.40;;;1.00;;
69253;SDS011;56364;41.816;12.448;2023-12-14T15:36:40;3.83;;;1.30;;
69253;SDS011;56364;41.816;12.448;2023-12-14T15:39:06;3.80;;;1.10;;
69253;SDS011;56364;41.816;12.448;2023-12-14T15:41:33;5.45;;;1.02;;
69253;SDS011;56364;41.816;12.448;2023-12-14T15:49:07;4.50;;;1.10;;
69253;SDS011;56364;41.816;12.448;2023-12-14T15:51:39;3.38;;;1.35;;
69253;SDS011;56364;41.816;12.448;2023-12-14T15:54:09;2.28;;;0.80;;
69253;SDS011;56364;41.816;12.448;2023-12-14T15:56:35;7.38;;;1.30;;
69253;SDS011;56364;41.816;12.448;2023-12-14T15:59:01;5.95;;;0.80;;
69253;SDS011;56364;41.816;12.448;2023-12-14T16:01:28;1.70;;;1.00;;
69253;SDS011;56364;41.816;12.448;2023-12-14T16:06:30;4.90;;;0.98;;
69253;SDS011;56364;41.816;12.448;2023-12-14T16:24:31;1.63;;;1.00;;
69253;SDS011;56364;41.816;12.448;2023-12-14T16:26:57;2.97;;;1.02;;
69253;SDS011;56364;41.816;12.448;2023-12-14T16:29:24;3.08;;;1.27;;
69253;SDS011;56364;41.816;12.448;2023-12-14T16:31:51;3.72;;;1.52;;
69253;SDS011;56364;41.816;12.448;2023-12-14T16:34:17;6.43;;;1.40;;
69253;SDS011;56364;41.816;12.448;2023-12-14T16:36:46;3.58;;;1.50;;
69253;SDS011;56364;41.816;12.448;2023-12-14T16:39:12;2.10;;;1.20;;
69253;SDS011;56364;41.816;12.448;2023-12-14T16:41:38;6.13;;;1.60;;
69253;SDS011;56364;41.816;12.448;2023-12-14T16:44:05;7.50;;;1.40;;
69253;SDS011;56364;41.816;12.448;2023-12-14T16:48:57;9.40;;;2.28;;
69253;SDS011;56364;41.816;12.448;2023-12-14T16:53:50;4.55;;;1.40;;
69253;SDS011;56364;41.816;12.448;2023-12-14T16:56:16;5.70;;;1.85;;
69253;SDS011;56364;41.816;12.448;2023-12-14T16:58:46;8.57;;;1.80;;
69253;SDS011;56364;41.816;12.448;2023-12-14T17:01:12;7.95;;;2.17;;
69253;SDS011;56364;41.816;12.448;2023-12-14T17:03:38;4.82;;;1.95;;
69253;SDS011;56364;41.816;12.448;2023-12-14T17:06:04;6.78;;;2.00;;
69253;SDS011;56364;41.816;12.448;2023-12-14T17:08:37;8.90;;;1.90;;
69253;SDS011;56364;41.816;12.448;2023-12-14T17:11:07;6.43;;;2.35;;
69253;SDS011;56364;41.816;12.448;2023-12-14T17:13:34;6.00;;;2.30;;
69253;SDS011;56364;41.816;12.448;2023-12-14T17:18:50;8.10;;;2.22;;
69253;SDS011;56364;41.816;12.448;2023-12-14T17:21:20;8.98;;;1.95;;
69253;SDS011;56364;41.816;12.448;2023-12-14T17:23:47;6.88;;;2.38;;
69253;SDS011;56364;41.816;12.448;2023-12-14T17:26:32;3.35;;;1.60;;
69253;SDS011;56364;41.816;12.448;2023-12-14T17:28:58;7.38;;;1.90;;
69253;SDS011;56364;41.816;12.448;2023-12-14T17:31:28;4.00;;;1.63;;
69253;SDS011;56364;41.816;12.448;2023-12-14T17:33:57;6.95;;;2.08;;
69253;SDS011;56364;41.816;12.448;2023-12-14T17:36:23;6.15;;;1.98;;
69253;SDS011;56364;41.816;12.448;2023-12-14T17:38:49;8.88;;;1.85;;
69253;SDS011;56364;41.816;12.448;2023-12-14T17:41:16;7.30;;;2.30;;